createdAt,value
2019-02-10T00:01:13.206Z,0.70
2019-02-10T00:03:41.304Z,1.87
2019-02-10T00:06:09.373Z,1.37
2019-02-10T00:08:37.433Z,1.42
2019-02-10T00:11:05.509Z,0.75
2019-02-10T00:13:35.394Z,1.20
2019-02-10T00:16:22.583Z,1.50
2019-02-10T00:18:50.760Z,1.40
2019-02-10T00:21:18.882Z,0.80
2019-02-10T00:23:46.902Z,0.80
2019-02-10T00:26:14.946Z,1.42
2019-02-10T00:28:43.029Z,1.20
2019-02-10T00:31:11.099Z,1.62
2019-02-10T00:33:39.134Z,1.90
2019-02-10T00:36:07.196Z,1.20
2019-02-10T00:38:35.227Z,1.42
2019-02-10T00:41:03.305Z,1.62
2019-02-10T00:43:31.453Z,1.20
2019-02-10T00:45:59.467Z,1.20
2019-02-10T00:48:27.574Z,1.20
2019-02-10T00:50:55.668Z,1.05
2019-02-10T00:53:23.723Z,1.10
2019-02-10T00:55:51.705Z,0.95
2019-02-10T00:58:19.764Z,1.12
2019-02-10T01:00:47.784Z,1.62
2019-02-10T01:03:15.799Z,1.20
2019-02-10T01:05:43.910Z,1.25
2019-02-10T01:08:11.916Z,1.10
2019-02-10T01:10:40.046Z,1.22
2019-02-10T01:13:08.086Z,1.70
2019-02-10T01:15:36.117Z,1.20
2019-02-10T01:18:04.213Z,1.22
2019-02-10T01:20:32.227Z,1.15
2019-02-10T01:23:00.627Z,1.27
2019-02-10T01:25:28.646Z,1.07
2019-02-10T01:27:56.617Z,1.25
2019-02-10T01:30:24.635Z,0.88
2019-02-10T01:32:52.731Z,0.72
2019-02-10T01:35:20.902Z,0.98
2019-02-10T01:37:48.927Z,1.50
2019-02-10T01:40:17.080Z,1.25
2019-02-10T01:42:45.121Z,1.32
2019-02-10T01:45:13.130Z,1.35
2019-02-10T01:47:41.196Z,1.50
2019-02-10T01:50:09.946Z,1.45
2019-02-10T01:52:38.020Z,1.45
2019-02-10T01:55:07.422Z,1.15
2019-02-10T01:57:35.476Z,1.47
2019-02-10T02:00:03.566Z,1.35
2019-02-10T02:02:31.576Z,0.98
2019-02-10T02:04:59.705Z,0.72
2019-02-10T02:07:27.948Z,1.12
2019-02-10T02:09:55.928Z,1.00
2019-02-10T02:12:23.949Z,1.00
2019-02-10T02:14:51.942Z,1.02
2019-02-10T02:17:20.032Z,0.68
2019-02-10T02:19:48.181Z,1.10
2019-02-10T02:22:16.171Z,1.30
2019-02-10T02:24:44.152Z,1.20
2019-02-10T02:27:12.279Z,1.10
2019-02-10T02:29:40.272Z,0.50
2019-02-10T02:32:08.281Z,0.93
2019-02-10T02:34:36.300Z,1.25
2019-02-10T02:37:07.959Z,1.10
2019-02-10T02:39:33.949Z,1.35
2019-02-10T02:42:02.114Z,1.05
2019-02-10T02:44:30.130Z,1.50
2019-02-10T02:46:58.225Z,1.65
2019-02-10T02:49:26.367Z,1.20
2019-02-10T02:51:54.374Z,1.40
2019-02-10T02:54:22.481Z,1.15
2019-02-10T02:56:50.494Z,1.22
2019-02-10T02:59:18.516Z,1.70
2019-02-10T03:01:46.562Z,1.70
2019-02-10T03:04:14.572Z,1.10
2019-02-10T03:06:46.114Z,1.62
2019-02-10T03:09:15.154Z,1.32
2019-02-10T03:11:43.162Z,1.12
2019-02-10T03:14:11.153Z,1.22
2019-02-10T03:16:39.176Z,1.27
2019-02-10T03:19:07.261Z,1.20
2019-02-10T03:21:35.300Z,1.10
2019-02-10T03:24:03.374Z,1.40
2019-02-10T03:26:31.377Z,1.75
2019-02-10T03:28:59.422Z,1.17
2019-02-10T03:31:27.544Z,2.15
2019-02-10T03:33:55.561Z,0.72
2019-02-10T03:36:23.591Z,1.32
2019-02-10T03:38:51.615Z,1.42
2019-02-10T03:41:19.702Z,1.00
2019-02-10T03:43:47.934Z,1.20
2019-02-10T03:46:15.984Z,1.37
2019-02-10T03:48:44.031Z,1.15
2019-02-10T03:51:12.172Z,1.35
2019-02-10T03:53:40.197Z,1.60
2019-02-10T03:56:08.219Z,1.62
2019-02-10T03:58:36.216Z,1.32
2019-02-10T04:01:04.273Z,1.52
2019-02-10T04:03:32.304Z,1.55
2019-02-10T04:06:00.301Z,1.57
2019-02-10T04:08:28.441Z,1.17
2019-02-10T04:10:56.394Z,0.78
2019-02-10T04:13:24.408Z,1.62
2019-02-10T04:15:52.447Z,1.67
2019-02-10T04:18:20.679Z,1.35
2019-02-10T04:20:48.508Z,1.70
2019-02-10T04:23:16.520Z,1.72
2019-02-10T04:25:44.551Z,1.77
2019-02-10T04:28:12.521Z,1.92
2019-02-10T04:30:40.515Z,1.20
2019-02-10T04:33:09.169Z,1.62
2019-02-10T04:35:37.264Z,2.65
2019-02-10T04:38:05.381Z,1.47
2019-02-10T04:40:33.416Z,1.35
2019-02-10T04:43:01.502Z,1.60
2019-02-10T04:45:29.579Z,1.72
2019-02-10T04:47:57.614Z,1.60
2019-02-10T04:50:25.635Z,3.10
2019-02-10T04:52:53.671Z,1.65
2019-02-10T04:55:21.739Z,1.90
2019-02-10T04:57:49.750Z,1.77
2019-02-10T05:00:17.841Z,1.70
2019-02-10T05:02:45.834Z,1.55
2019-02-10T05:05:14.017Z,1.85
2019-02-10T05:07:42.035Z,1.50
2019-02-10T05:10:10.105Z,1.55
2019-02-10T05:12:38.083Z,1.50
2019-02-10T05:15:06.144Z,1.70
2019-02-10T05:17:34.191Z,2.12
2019-02-10T05:20:02.193Z,2.22
2019-02-10T05:22:30.256Z,1.95
2019-02-10T05:24:58.326Z,1.67
2019-02-10T05:27:26.398Z,2.12
2019-02-10T05:29:54.440Z,1.80
2019-02-10T05:32:22.551Z,1.95
2019-02-10T05:34:50.827Z,1.85
2019-02-10T05:37:18.858Z,1.20
2019-02-10T05:39:46.866Z,0.98
2019-02-10T05:42:14.838Z,1.00
2019-02-10T05:44:42.930Z,1.37
2019-02-10T05:47:10.957Z,1.65
2019-02-10T05:49:38.969Z,1.05
2019-02-10T05:52:07.234Z,0.90
2019-02-10T05:54:35.223Z,1.22
2019-02-10T05:57:03.303Z,0.90
2019-02-10T05:59:31.357Z,1.02
2019-02-10T06:02:43.225Z,1.10
2019-02-10T06:05:14.955Z,1.32
2019-02-10T06:07:42.936Z,0.70
2019-02-10T06:10:10.951Z,1.15
2019-02-10T06:12:39.258Z,0.90
2019-02-10T06:15:08.460Z,0.85
2019-02-10T06:17:36.557Z,1.42
2019-02-10T06:20:05.013Z,0.98
2019-02-10T06:22:32.987Z,0.98
2019-02-10T06:25:00.956Z,1.17
2019-02-10T06:27:29.025Z,0.93
2019-02-10T06:29:57.245Z,0.80
2019-02-10T06:32:25.272Z,0.57
2019-02-10T06:34:53.288Z,1.00
2019-02-10T06:37:21.917Z,1.20
2019-02-10T06:39:49.944Z,1.22
2019-02-10T06:42:18.110Z,0.90
2019-02-10T06:44:46.224Z,0.70
2019-02-10T06:47:14.420Z,0.90
2019-02-10T06:49:42.416Z,1.25
2019-02-10T06:52:10.490Z,0.35
2019-02-10T06:54:45.296Z,0.45
2019-02-10T06:57:13.516Z,0.50
2019-02-10T07:00:03.499Z,0.60
2019-02-10T07:05:13.567Z,0.82
2019-02-10T07:07:41.615Z,0.80
2019-02-10T07:10:09.594Z,0.68
2019-02-10T07:13:06.901Z,0.90
2019-02-10T07:16:10.725Z,1.15
2019-02-10T07:19:14.611Z,0.75
2019-02-10T07:21:46.409Z,1.37
2019-02-10T07:24:41.612Z,0.70
2019-02-10T07:27:34.438Z,0.50
2019-02-10T07:30:38.302Z,0.85
2019-02-10T07:33:10.362Z,2.35
2019-02-10T07:36:16.668Z,1.30
2019-02-10T07:39:20.156Z,0.68
2019-02-10T07:42:29.397Z,1.45
2019-02-10T07:45:50.955Z,0.70
2019-02-10T07:48:32.110Z,0.72
2019-02-10T07:51:29.368Z,0.50
2019-02-10T07:54:42.130Z,0.68
2019-02-10T07:57:50.426Z,0.80
2019-02-10T08:01:05.848Z,0.53
2019-02-10T08:04:14.879Z,0.85
2019-02-10T08:07:19.251Z,0.75
2019-02-10T08:10:02.267Z,0.80
2019-02-10T08:12:58.135Z,0.68
2019-02-10T08:15:53.090Z,0.72
2019-02-10T08:19:12.655Z,0.60
2019-02-10T08:22:19.186Z,0.72
2019-02-10T08:25:27.627Z,0.78
2019-02-10T08:28:11.851Z,0.93
2019-02-10T08:31:04.847Z,0.90
2019-02-10T08:33:57.322Z,0.45
2019-02-10T08:36:50.037Z,0.80
2019-02-10T08:39:56.433Z,0.65
2019-02-10T08:43:01.549Z,0.33
2019-02-10T08:45:55.096Z,0.53
2019-02-10T08:49:07.324Z,0.50
2019-02-10T08:51:58.587Z,0.72
2019-02-10T08:54:26.878Z,0.68
2019-02-10T08:56:54.894Z,0.30
2019-02-10T08:59:22.983Z,1.17
2019-02-10T09:01:51.039Z,0.40
2019-02-10T09:04:19.137Z,0.45
2019-02-10T09:06:47.301Z,0.40
2019-02-10T09:09:15.371Z,0.50
2019-02-10T09:11:43.525Z,0.30
2019-02-10T09:14:11.616Z,0.23
2019-02-10T09:16:40.052Z,0.40
2019-02-10T09:19:08.180Z,0.60
2019-02-10T09:21:36.225Z,0.70
2019-02-10T09:24:04.527Z,0.50
2019-02-10T09:26:32.725Z,0.75
2019-02-10T09:29:00.976Z,0.68
2019-02-10T09:31:29.217Z,0.45
2019-02-10T09:33:57.313Z,0.65
2019-02-10T09:36:25.761Z,0.50
2019-02-10T09:38:54.032Z,0.50
2019-02-10T09:41:22.123Z,0.50
2019-02-10T09:43:50.298Z,0.40
2019-02-10T09:46:18.576Z,0.30
2019-02-10T09:48:46.695Z,0.47
2019-02-10T09:51:14.923Z,0.50
2019-02-10T09:53:43.004Z,0.60
2019-02-10T09:56:11.167Z,0.40
2019-02-10T09:58:39.413Z,0.42
2019-02-10T10:01:07.676Z,0.45
2019-02-10T10:03:35.916Z,0.50
2019-02-10T10:06:04.040Z,0.40
2019-02-10T10:08:32.498Z,0.70
2019-02-10T10:11:01.080Z,0.25
2019-02-10T10:13:30.342Z,0.72
2019-02-10T10:15:58.893Z,0.37
2019-02-10T10:18:27.301Z,0.50
2019-02-10T10:20:55.418Z,0.40
2019-02-10T10:23:23.488Z,1.00
2019-02-10T10:25:51.776Z,0.60
2019-02-10T10:28:20.160Z,1.07
2019-02-10T10:30:48.819Z,0.37
2019-02-10T10:33:17.657Z,0.53
2019-02-10T10:35:46.329Z,0.57
2019-02-10T10:38:14.875Z,0.80
2019-02-10T10:40:43.131Z,0.57
2019-02-10T10:43:11.287Z,0.47
2019-02-10T10:45:39.713Z,0.70
2019-02-10T10:48:08.240Z,0.80
2019-02-10T10:50:37.111Z,0.75
2019-02-10T10:53:05.470Z,0.65
2019-02-10T10:55:33.865Z,0.50
2019-02-10T10:58:02.123Z,0.68
2019-02-10T11:00:30.843Z,0.60
2019-02-10T11:03:00.015Z,0.53
2019-02-10T11:05:28.649Z,0.40
2019-02-10T11:07:57.424Z,0.70
2019-02-10T11:10:25.620Z,0.75
2019-02-10T11:12:54.097Z,0.82
2019-02-10T11:15:22.386Z,0.62
2019-02-10T11:17:50.778Z,0.70
2019-02-10T11:20:19.044Z,0.68
2019-02-10T11:22:47.309Z,0.35
2019-02-10T11:25:15.484Z,0.60
2019-02-10T11:27:44.024Z,0.50
2019-02-10T11:30:12.412Z,0.42
2019-02-10T11:32:40.929Z,0.40
2019-02-10T11:35:09.295Z,0.60
2019-02-10T11:37:37.744Z,0.68
2019-02-10T11:40:06.846Z,0.60
2019-02-10T11:42:35.742Z,0.70
2019-02-10T11:45:04.449Z,0.70
2019-02-10T11:47:33.416Z,0.60
2019-02-10T11:50:01.777Z,0.62
2019-02-10T11:52:30.167Z,0.68
2019-02-10T11:54:58.340Z,0.60
2019-02-10T11:57:27.145Z,0.65
2019-02-10T11:59:55.711Z,0.57
2019-02-10T12:02:24.170Z,0.50
2019-02-10T12:04:53.313Z,0.40
2019-02-10T12:07:22.321Z,0.45
2019-02-10T12:09:54.060Z,0.62
2019-02-10T12:12:22.215Z,0.53
2019-02-10T12:14:50.383Z,0.40
2019-02-10T12:17:18.668Z,0.70
2019-02-10T12:19:46.829Z,0.55
2019-02-10T12:22:15.239Z,0.57
2019-02-10T12:24:43.616Z,0.30
2019-02-10T12:27:12.660Z,0.40
2019-02-10T12:29:42.953Z,0.50
2019-02-10T12:32:11.702Z,0.50
2019-02-10T12:34:40.575Z,0.70
2019-02-10T12:37:12.266Z,0.95
2019-02-10T12:39:40.450Z,0.40
2019-02-10T12:42:08.691Z,0.75
2019-02-10T12:44:37.525Z,0.50
2019-02-10T12:47:05.686Z,0.80
2019-02-10T12:49:33.934Z,0.80
2019-02-10T12:52:03.143Z,0.50
2019-02-10T12:54:31.757Z,0.62
2019-02-10T12:57:00.290Z,0.98
2019-02-10T12:59:29.243Z,0.42
2019-02-10T13:01:57.517Z,0.70
2019-02-10T13:04:26.203Z,0.70
2019-02-10T13:06:54.655Z,0.40
2019-02-10T13:09:24.117Z,0.40
2019-02-10T13:11:58.275Z,0.47
2019-02-10T13:14:24.244Z,0.50
2019-02-10T13:16:52.781Z,0.53
2019-02-10T13:19:21.573Z,0.60
2019-02-10T13:21:50.198Z,0.30
2019-02-10T13:24:18.639Z,0.60
2019-02-10T13:26:47.175Z,0.30
2019-02-10T13:29:15.835Z,0.70
2019-02-10T13:31:44.464Z,0.60
2019-02-10T13:34:13.001Z,0.30
2019-02-10T13:36:41.404Z,0.40
2019-02-10T13:39:10.326Z,0.30
2019-02-10T13:41:37.667Z,0.40
2019-02-10T13:44:06.809Z,0.55
2019-02-10T13:46:35.353Z,0.35
2019-02-10T13:49:03.796Z,0.70
2019-02-10T13:51:32.191Z,0.20
2019-02-10T13:54:00.586Z,0.33
2019-02-10T13:56:29.051Z,0.30
2019-02-10T13:58:58.671Z,0.13
2019-02-10T14:01:27.088Z,0.50
2019-02-10T14:03:55.701Z,0.28
2019-02-10T14:06:24.511Z,0.40
2019-02-10T14:08:52.942Z,0.40
2019-02-10T14:11:21.862Z,0.60
2019-02-10T14:13:49.997Z,0.45
2019-02-10T14:16:18.161Z,0.33
2019-02-10T14:18:46.853Z,0.10
2019-02-10T14:21:15.350Z,0.30
2019-02-10T14:23:44.065Z,0.23
2019-02-10T14:26:13.087Z,0.42
2019-02-10T14:28:41.411Z,0.20
2019-02-10T14:31:10.475Z,0.10
2019-02-10T14:33:39.282Z,0.23
2019-02-10T14:36:07.975Z,0.30
2019-02-10T14:38:36.688Z,0.20
2019-02-10T14:41:05.300Z,0.20
2019-02-10T14:43:33.803Z,0.13
2019-02-10T14:46:02.223Z,0.20
2019-02-10T14:48:31.198Z,0.10
2019-02-10T14:50:59.512Z,0.10
2019-02-10T14:53:28.394Z,0.20
2019-02-10T14:55:56.933Z,0.10
2019-02-10T14:58:25.326Z,0.20
2019-02-10T15:00:54.089Z,0.15
2019-02-10T15:03:22.412Z,0.20
2019-02-10T15:05:51.044Z,0.60
2019-02-10T15:08:19.717Z,0.20
2019-02-10T15:10:48.327Z,0.72
2019-02-10T15:13:16.487Z,0.40
2019-02-10T15:15:44.951Z,0.50
2019-02-10T15:18:13.309Z,0.60
2019-02-10T15:20:41.604Z,0.50
2019-02-10T15:23:10.603Z,0.40
2019-02-10T15:25:39.202Z,0.60
2019-02-10T15:28:07.471Z,0.53
2019-02-10T15:30:36.141Z,0.25
2019-02-10T15:33:06.235Z,0.93
2019-02-10T15:35:37.973Z,0.72
2019-02-10T15:38:06.958Z,2.65
2019-02-10T15:40:35.414Z,1.60
2019-02-10T15:43:03.879Z,0.93
2019-02-10T15:45:32.332Z,0.72
2019-02-10T15:48:01.269Z,0.42
2019-02-10T15:50:30.143Z,0.50
2019-02-10T15:53:00.359Z,1.40
2019-02-10T15:55:29.256Z,0.50
2019-02-10T15:57:57.458Z,0.42
2019-02-10T16:00:26.828Z,0.47
2019-02-10T16:02:55.647Z,0.53
2019-02-10T16:05:24.296Z,0.40
2019-02-10T16:07:52.582Z,0.70
2019-02-10T16:10:21.293Z,0.40
2019-02-10T16:12:50.271Z,0.33
2019-02-10T16:15:19.123Z,0.20
2019-02-10T16:17:47.946Z,0.35
2019-02-10T16:20:16.749Z,0.50
2019-02-10T16:22:45.420Z,0.30
2019-02-10T16:25:14.527Z,0.37
2019-02-10T16:27:44.025Z,0.37
2019-02-10T16:30:13.597Z,0.70
2019-02-10T16:32:49.705Z,0.28
2019-02-10T16:35:13.053Z,0.30
2019-02-10T16:37:41.255Z,0.40
2019-02-10T16:40:13.392Z,0.37
2019-02-10T16:42:42.258Z,0.30
2019-02-10T16:45:10.771Z,0.20
2019-02-10T16:47:40.328Z,0.50
2019-02-10T16:50:10.290Z,0.30
2019-02-10T16:52:39.488Z,0.50
2019-02-10T16:55:10.922Z,0.50
2019-02-10T16:57:42.204Z,0.85
2019-02-10T17:00:12.906Z,0.50
2019-02-10T17:02:41.584Z,0.80
2019-02-10T17:05:10.803Z,0.88
2019-02-10T17:07:39.052Z,1.12
2019-02-10T17:10:09.661Z,1.00
2019-02-10T17:15:07.162Z,0.93
2019-02-10T17:17:36.368Z,0.80
2019-02-10T17:20:05.995Z,1.10
2019-02-10T17:22:34.823Z,0.80
2019-02-10T17:25:04.272Z,0.95
2019-02-10T17:27:32.806Z,0.55
2019-02-10T17:30:01.790Z,0.60
2019-02-10T17:32:30.795Z,0.70
2019-02-10T17:34:59.477Z,0.55
2019-02-10T17:37:28.199Z,1.17
2019-02-10T17:39:56.532Z,0.37
2019-02-10T17:42:24.949Z,0.20
2019-02-10T17:44:53.961Z,0.20
2019-02-10T17:47:22.049Z,0.10
2019-02-10T17:49:50.254Z,0.20
2019-02-10T17:52:18.436Z,0.20
2019-02-10T17:54:46.538Z,0.10
2019-02-10T17:57:14.858Z,0.30
2019-02-10T17:59:43.653Z,0.00
2019-02-10T18:02:12.004Z,0.20
2019-02-10T18:04:40.478Z,0.10
2019-02-10T18:07:08.903Z,0.47
2019-02-10T18:09:37.558Z,0.50
2019-02-10T18:12:05.951Z,0.40
2019-02-10T18:14:48.926Z,0.85
2019-02-10T18:17:26.499Z,0.45
2019-02-10T18:20:04.531Z,1.00
2019-02-10T18:22:51.659Z,1.60
2019-02-10T18:25:29.997Z,0.90
2019-02-10T18:28:17.549Z,0.80
2019-02-10T18:31:14.006Z,0.80
2019-02-10T18:33:56.965Z,0.55
2019-02-10T18:36:51.508Z,0.70
2019-02-10T18:39:42.122Z,0.40
2019-02-10T18:45:52.924Z,0.70
2019-02-10T18:48:39.212Z,0.60
2019-02-10T18:51:17.499Z,0.78
2019-02-10T18:54:08.316Z,1.30
2019-02-10T18:56:55.102Z,2.08
2019-02-10T18:59:38.240Z,1.57
2019-02-10T19:02:25.565Z,1.15
2019-02-10T19:05:18.441Z,1.65
2019-02-10T19:08:06.394Z,1.20
2019-02-10T19:11:07.120Z,1.25
2019-02-10T19:16:41.584Z,1.00
2019-02-10T19:19:28.410Z,0.70
2019-02-10T19:22:14.521Z,1.20
2019-02-10T19:25:06.298Z,1.02
2019-02-10T19:27:57.359Z,1.00
2019-02-10T19:31:05.673Z,1.02
2019-02-10T19:33:51.867Z,1.10
2019-02-10T19:36:48.251Z,0.57
2019-02-10T19:39:48.129Z,0.90
2019-02-10T19:42:45.192Z,1.10
2019-02-10T19:45:32.031Z,0.82
2019-02-10T19:48:23.685Z,0.60
2019-02-10T19:51:21.218Z,0.45
2019-02-10T19:54:21.421Z,1.00
2019-02-10T19:57:08.604Z,0.30
2019-02-10T19:59:57.184Z,0.20
2019-02-10T20:02:45.296Z,0.70
2019-02-10T20:05:42.914Z,0.17
2019-02-10T20:08:37.272Z,0.30
2019-02-10T20:11:24.345Z,0.23
2019-02-10T20:14:15.161Z,0.20
2019-02-10T20:17:02.129Z,0.20
2019-02-10T20:19:55.486Z,0.25
2019-02-10T20:22:38.975Z,0.40
2019-02-10T20:25:36.101Z,0.23
2019-02-10T20:28:24.263Z,0.17
2019-02-10T20:31:12.465Z,1.22
2019-02-10T20:33:51.245Z,1.90
2019-02-10T20:36:50.943Z,0.90
2019-02-10T20:39:47.807Z,0.23
2019-02-10T20:42:26.604Z,0.90
2019-02-10T20:45:14.035Z,0.57
2019-02-10T20:47:59.497Z,0.60
2019-02-10T20:50:41.145Z,0.40
2019-02-10T20:53:28.394Z,0.70
2019-02-10T20:56:15.941Z,0.37
2019-02-10T20:58:50.286Z,0.50
2019-02-10T21:01:46.334Z,0.68
2019-02-10T21:04:22.177Z,0.70
2019-02-10T21:10:11.875Z,0.80
2019-02-10T21:12:59.599Z,0.72
2019-02-10T21:15:39.332Z,0.82
2019-02-10T21:18:26.419Z,0.65
2019-02-10T21:21:28.778Z,0.80
2019-02-10T21:24:14.926Z,1.02
2019-02-10T21:26:57.410Z,0.98
2019-02-10T21:29:47.431Z,0.50
2019-02-10T21:32:22.093Z,1.00
2019-02-10T21:34:55.294Z,0.45
2019-02-10T21:37:32.725Z,0.72
2019-02-10T21:40:18.321Z,0.35
2019-02-10T21:43:18.470Z,0.50
2019-02-10T21:46:01.539Z,0.45
2019-02-10T21:48:35.457Z,0.53
2019-02-10T21:51:03.699Z,0.80
2019-02-10T21:53:31.831Z,0.50
2019-02-10T21:56:00.131Z,0.60
2019-02-10T21:58:28.486Z,0.70
2019-02-10T22:00:56.729Z,0.70
2019-02-10T22:03:24.897Z,0.33
2019-02-10T22:05:53.052Z,0.40
2019-02-10T22:08:21.162Z,0.60
2019-02-10T22:10:49.262Z,0.60
2019-02-10T22:13:17.377Z,0.40
2019-02-10T22:15:45.706Z,0.75
2019-02-10T22:18:13.959Z,0.47
2019-02-10T22:20:42.121Z,0.70
2019-02-10T22:23:10.188Z,1.27
2019-02-10T22:25:38.327Z,0.82
2019-02-10T22:28:06.981Z,0.90
2019-02-10T22:30:35.241Z,0.75
2019-02-10T22:33:03.343Z,0.55
2019-02-10T22:35:31.732Z,0.90
2019-02-10T22:38:00.078Z,0.88
2019-02-10T22:40:28.436Z,0.90
2019-02-10T22:42:56.787Z,0.62
2019-02-10T22:45:25.477Z,0.47
2019-02-10T22:47:53.750Z,0.70
2019-02-10T22:50:21.811Z,0.72
2019-02-10T22:52:50.145Z,0.50
2019-02-10T22:55:20.822Z,0.20
2019-02-10T23:00:42.301Z,0.40
2019-02-10T23:03:10.351Z,0.30
2019-02-10T23:05:38.553Z,0.20
2019-02-10T23:08:06.659Z,0.25
2019-02-10T23:10:34.733Z,0.30
2019-02-10T23:13:02.818Z,0.15
2019-02-10T23:15:30.873Z,0.60
2019-02-10T23:17:59.095Z,0.30
2019-02-10T23:20:27.208Z,0.30
2019-02-10T23:22:55.476Z,0.40
2019-02-10T23:25:23.579Z,0.50
2019-02-10T23:27:51.728Z,0.50
2019-02-10T23:30:19.886Z,0.60
2019-02-10T23:32:47.995Z,0.70
2019-02-10T23:35:16.168Z,0.30
2019-02-10T23:37:44.257Z,0.70
2019-02-10T23:40:12.654Z,0.45
2019-02-10T23:42:40.808Z,0.50
2019-02-10T23:45:08.900Z,0.50
2019-02-10T23:47:37.000Z,0.70
2019-02-10T23:50:05.178Z,0.70
2019-02-10T23:52:33.248Z,0.50
2019-02-10T23:55:01.281Z,0.55
2019-02-10T23:57:29.609Z,0.70
2019-02-10T23:59:57.681Z,0.08
